• Join FlightAware (Why Join?)
  • Login
  • US Flag 
06:51AM EDT


 

Airport Tracker/Info


-or-


 

Live Flight TrackerFlight Track Log ✈ EJA951 ✈ 17-Sep-2013 ✈ KBPT - KHOU

Flight Track Log - Related Links

Times and Time Zones

All times are in EDT time to prevent confusion due to time zone crossing. See the EJA951 flight status page for this flight to view local times or setup timezone preferences in your user account.

Time Position Orientation Groundspeed Altitude Reporting Facility
EDT Latitude Longitude Course Direction KTS MPH feet Rate Location/Type
12:13PM 29.8869 -94.0072 170° South 242 278 3,800  Level Houston Center
12:14PM 29.8453 -94.0550 225° Southwest 299 344 6,400 3,420 Climbing Houston Center
12:14PM 29.8394 -94.0761 252° West 310 357 7,300 3,180 Climbing Houston Center
12:15PM 29.8089 -94.1406 241° Southwest 304 350 9,700 2,640 Climbing Houston Center
12:15PM 29.7944 -94.1714 242° Southwest 357 411 10,000 240 Climbing Houston Center
12:16PM 29.7500 -94.2586 240° Southwest 409 471 10,000  Level Houston Center
12:16PM 29.7364 -94.2850 239° Southwest 425 489 10,000  Level Houston Center
12:17PM 29.6997 -94.4083 251° West 429 494 10,000  Level Houston Center
12:17PM 29.6986 -94.4128 254° West 421 484 10,000  Level Houston Center
12:18PM 29.6822 -94.5406 262° West 423 487 10,000  Level Houston Center
12:18PM 29.6781 -94.5669 260° West 423 487 10,000  Level Houston Center
12:19PM 29.6644 -94.6736 262° West 422 486 10,000  Level Houston Center
12:19PM 29.6594 -94.6994 257° West 423 487 10,000  Level Houston Center
12:20PM 29.6469 -94.8075 262° West 422 486 10,000  Level Houston Center
12:20PM 29.6428 -94.8314 259° West 421 484 10,000 -480 Level Houston Center
12:21PM 29.6267 -94.9489 261° West 320 368 9,500 -900 Descending Houston Center
12:22PM 29.6139 -95.0369 261° West 301 346 8,300 -1,200 Descending Houston Center
12:22PM 29.6175 -95.0217 75° East 315 362 8,400 -1,980 Climbing Houston Center
12:23PM 29.6017 -95.1331 261° West 294 338 6,200 -1,920 Descending Houston Center
12:24PM 29.5586 -95.2072 236° Southwest 279 321 4,600 -1,380 Descending Houston Center
12:24PM 29.5656 -95.1992 45° Northeast 294 338 4,800 -900 Climbing Houston Center
12:25PM 29.5094 -95.2683 227° Southwest 237 273 3,700 -1,080 Descending Houston Center
12:25PM 29.5050 -95.2736 226° Southwest 275 316 3,700 -1,140 Level Houston Center
12:26PM 29.5025 -95.3267 267° West 203 234 2,600 -1,200 Descending Houston Center
12:26PM 29.5019 -95.3286 252° West 237 273 2,500 -600 Descending Houston Center
12:27PM 29.5458 -95.3647 324° Northwest 199 229 2,000 -540 Descending Houston Center
12:27PM 29.5489 -95.3650 355° North 215 247 2,000 -600 Level Houston Center
12:28PM 29.5917 -95.3378 29° Northeast 171 197 1,400 -600 Descending Houston Center
12:28PM 29.5914 -95.3381 221° Southwest 193 222 1,400 -900 Level Houston Center
12:29PM 29.6219 -95.3028 45° Northeast 131 151 500 -900 Descending Houston Center
12:29PM 29.6225 -95.3036 307° West 168 193 500  Level Houston Center
12:32PM 29.6333 -95.2667 180° South  Level FlightAware Approximate